sensor_id;sensor_type;location;lat;lon;timestamp;P1;durP1;ratioP1;P2;durP2;ratioP2
49978;SDS011;35869;50.990;6.962;2023-05-29T00:00:30;7.53;;;3.83;;
49978;SDS011;35869;50.990;6.962;2023-05-29T00:05:31;5.97;;;3.37;;
49978;SDS011;35869;50.990;6.962;2023-05-29T00:10:31;5.63;;;3.92;;
49978;SDS011;35869;50.990;6.962;2023-05-29T00:15:31;6.00;;;3.73;;
49978;SDS011;35869;50.990;6.962;2023-05-29T00:20:31;5.32;;;3.30;;
49978;SDS011;35869;50.990;6.962;2023-05-29T00:25:32;5.87;;;3.47;;
49978;SDS011;35869;50.990;6.962;2023-05-29T00:30:32;5.55;;;3.00;;
49978;SDS011;35869;50.990;6.962;2023-05-29T00:35:32;7.07;;;3.38;;
49978;SDS011;35869;50.990;6.962;2023-05-29T00:40:33;6.72;;;3.33;;
49978;SDS011;35869;50.990;6.962;2023-05-29T00:45:33;7.15;;;3.85;;
49978;SDS011;35869;50.990;6.962;2023-05-29T00:50:35;5.40;;;3.63;;
49978;SDS011;35869;50.990;6.962;2023-05-29T00:55:36;5.03;;;3.58;;
49978;SDS011;35869;50.990;6.962;2023-05-29T01:00:37;4.78;;;3.72;;
49978;SDS011;35869;50.990;6.962;2023-05-29T01:05:38;7.43;;;4.20;;
49978;SDS011;35869;50.990;6.962;2023-05-29T01:10:38;9.00;;;4.30;;
49978;SDS011;35869;50.990;6.962;2023-05-29T01:21:14;5.55;;;3.75;;
49978;SDS011;35869;50.990;6.962;2023-05-29T01:31:35;3.85;;;3.15;;
49978;SDS011;35869;50.990;6.962;2023-05-29T01:36:37;6.80;;;3.38;;
49978;SDS011;35869;50.990;6.962;2023-05-29T01:41:37;6.28;;;3.15;;
49978;SDS011;35869;50.990;6.962;2023-05-29T01:46:40;4.20;;;2.60;;
49978;SDS011;35869;50.990;6.962;2023-05-29T01:51:44;3.95;;;2.70;;
49978;SDS011;35869;50.990;6.962;2023-05-29T01:56:48;4.28;;;2.60;;
49978;SDS011;35869;50.990;6.962;2023-05-29T02:01:50;4.70;;;2.55;;
49978;SDS011;35869;50.990;6.962;2023-05-29T02:06:50;3.88;;;2.70;;
49978;SDS011;35869;50.990;6.962;2023-05-29T02:16:51;8.53;;;3.20;;
49978;SDS011;35869;50.990;6.962;2023-05-29T02:21:51;7.75;;;3.17;;
49978;SDS011;35869;50.990;6.962;2023-05-29T02:26:51;3.85;;;2.72;;
49978;SDS011;35869;50.990;6.962;2023-05-29T02:31:51;4.93;;;2.85;;
49978;SDS011;35869;50.990;6.962;2023-05-29T02:36:52;6.07;;;3.42;;
49978;SDS011;35869;50.990;6.962;2023-05-29T02:41:55;5.43;;;3.10;;
49978;SDS011;35869;50.990;6.962;2023-05-29T02:46:55;2.70;;;2.22;;
49978;SDS011;35869;50.990;6.962;2023-05-29T02:51:59;6.57;;;3.10;;
49978;SDS011;35869;50.990;6.962;2023-05-29T02:56:59;5.30;;;3.28;;
49978;SDS011;35869;50.990;6.962;2023-05-29T03:02:02;5.18;;;3.10;;
49978;SDS011;35869;50.990;6.962;2023-05-29T03:12:03;5.93;;;3.53;;
49978;SDS011;35869;50.990;6.962;2023-05-29T03:22:04;6.57;;;3.67;;
49978;SDS011;35869;50.990;6.962;2023-05-29T03:27:16;5.35;;;3.60;;
49978;SDS011;35869;50.990;6.962;2023-05-29T03:32:16;6.78;;;3.55;;
49978;SDS011;35869;50.990;6.962;2023-05-29T03:37:21;6.38;;;3.67;;
49978;SDS011;35869;50.990;6.962;2023-05-29T03:42:21;7.25;;;3.63;;
49978;SDS011;35869;50.990;6.962;2023-05-29T03:47:21;6.20;;;3.17;;
49978;SDS011;35869;50.990;6.962;2023-05-29T03:57:22;7.22;;;3.85;;
49978;SDS011;35869;50.990;6.962;2023-05-29T04:07:28;10.48;;;4.53;;
49978;SDS011;35869;50.990;6.962;2023-05-29T04:12:32;9.88;;;4.97;;
49978;SDS011;35869;50.990;6.962;2023-05-29T04:17:38;8.20;;;4.38;;
49978;SDS011;35869;50.990;6.962;2023-05-29T04:22:42;12.93;;;5.93;;
49978;SDS011;35869;50.990;6.962;2023-05-29T04:33:01;10.73;;;5.63;;
49978;SDS011;35869;50.990;6.962;2023-05-29T04:38:01;10.13;;;5.53;;
49978;SDS011;35869;50.990;6.962;2023-05-29T04:43:11;12.15;;;6.05;;
49978;SDS011;35869;50.990;6.962;2023-05-29T04:48:17;10.88;;;4.72;;
49978;SDS011;35869;50.990;6.962;2023-05-29T04:53:23;13.20;;;4.50;;
49978;SDS011;35869;50.990;6.962;2023-05-29T04:58:29;10.43;;;4.22;;
49978;SDS011;35869;50.990;6.962;2023-05-29T05:03:30;9.38;;;4.22;;
49978;SDS011;35869;50.990;6.962;2023-05-29T05:08:30;10.82;;;4.32;;
49978;SDS011;35869;50.990;6.962;2023-05-29T05:13:54;9.67;;;4.30;;
49978;SDS011;35869;50.990;6.962;2023-05-29T05:19:10;12.75;;;4.40;;
49978;SDS011;35869;50.990;6.962;2023-05-29T05:24:16;13.30;;;4.78;;
49978;SDS011;35869;50.990;6.962;2023-05-29T05:29:19;13.38;;;4.60;;
49978;SDS011;35869;50.990;6.962;2023-05-29T05:34:20;13.18;;;4.72;;
49978;SDS011;35869;50.990;6.962;2023-05-29T05:39:23;12.55;;;4.57;;
49978;SDS011;35869;50.990;6.962;2023-05-29T05:44:23;9.82;;;4.32;;
49978;SDS011;35869;50.990;6.962;2023-05-29T05:49:24;11.73;;;4.13;;
49978;SDS011;35869;50.990;6.962;2023-05-29T05:54:24;8.13;;;3.97;;
49978;SDS011;35869;50.990;6.962;2023-05-29T05:59:33;9.98;;;4.03;;
49978;SDS011;35869;50.990;6.962;2023-05-29T06:04:33;9.10;;;3.42;;
49978;SDS011;35869;50.990;6.962;2023-05-29T06:09:33;9.80;;;5.10;;
49978;SDS011;35869;50.990;6.962;2023-05-29T06:14:38;8.85;;;3.88;;
49978;SDS011;35869;50.990;6.962;2023-05-29T06:19:40;11.93;;;4.70;;
49978;SDS011;35869;50.990;6.962;2023-05-29T06:24:41;10.95;;;4.30;;
49978;SDS011;35869;50.990;6.962;2023-05-29T06:29:46;7.45;;;3.65;;
49978;SDS011;35869;50.990;6.962;2023-05-29T06:34:46;10.32;;;4.03;;
49978;SDS011;35869;50.990;6.962;2023-05-29T06:39:46;8.13;;;4.03;;
49978;SDS011;35869;50.990;6.962;2023-05-29T06:44:47;13.20;;;4.33;;
49978;SDS011;35869;50.990;6.962;2023-05-29T06:49:47;10.88;;;4.20;;
49978;SDS011;35869;50.990;6.962;2023-05-29T06:54:47;10.82;;;4.20;;
49978;SDS011;35869;50.990;6.962;2023-05-29T07:04:56;10.50;;;3.65;;
49978;SDS011;35869;50.990;6.962;2023-05-29T07:16:03;12.40;;;4.07;;
49978;SDS011;35869;50.990;6.962;2023-05-29T07:26:18;10.18;;;3.80;;
49978;SDS011;35869;50.990;6.962;2023-05-29T07:59:25;9.18;;;4.18;;
49978;SDS011;35869;50.990;6.962;2023-05-29T08:04:46;8.55;;;3.38;;
49978;SDS011;35869;50.990;6.962;2023-05-29T08:14:54;8.93;;;3.55;;
49978;SDS011;35869;50.990;6.962;2023-05-29T08:20:13;9.25;;;4.10;;
49978;SDS011;35869;50.990;6.962;2023-05-29T08:30:59;6.55;;;3.10;;
49978;SDS011;35869;50.990;6.962;2023-05-29T08:36:18;5.28;;;3.17;;
49978;SDS011;35869;50.990;6.962;2023-05-29T08:41:25;6.30;;;3.58;;
49978;SDS011;35869;50.990;6.962;2023-05-29T08:52:21;5.65;;;3.15;;
49978;SDS011;35869;50.990;6.962;2023-05-29T08:57:33;8.57;;;3.58;;
49978;SDS011;35869;50.990;6.962;2023-05-29T09:02:43;9.65;;;3.85;;
49978;SDS011;35869;50.990;6.962;2023-05-29T09:07:43;10.07;;;3.78;;
49978;SDS011;35869;50.990;6.962;2023-05-29T09:12:56;10.43;;;3.03;;
49978;SDS011;35869;50.990;6.962;2023-05-29T09:17:59;11.43;;;4.05;;
49978;SDS011;35869;50.990;6.962;2023-05-29T09:23:07;8.90;;;3.30;;
49978;SDS011;35869;50.990;6.962;2023-05-29T09:28:08;6.22;;;3.55;;
49978;SDS011;35869;50.990;6.962;2023-05-29T09:33:10;8.98;;;3.55;;
49978;SDS011;35869;50.990;6.962;2023-05-29T09:38:13;9.57;;;3.83;;
49978;SDS011;35869;50.990;6.962;2023-05-29T09:43:18;11.20;;;3.75;;
49978;SDS011;35869;50.990;6.962;2023-05-29T09:48:23;6.97;;;3.47;;
49978;SDS011;35869;50.990;6.962;2023-05-29T09:53:24;4.50;;;2.47;;
49978;SDS011;35869;50.990;6.962;2023-05-29T09:58:25;14.10;;;4.63;;
49978;SDS011;35869;50.990;6.962;2023-05-29T10:03:25;11.10;;;3.47;;
49978;SDS011;35869;50.990;6.962;2023-05-29T10:08:26;8.68;;;3.53;;
49978;SDS011;35869;50.990;6.962;2023-05-29T10:13:31;9.82;;;4.03;;
49978;SDS011;35869;50.990;6.962;2023-05-29T10:18:37;8.43;;;3.35;;
49978;SDS011;35869;50.990;6.962;2023-05-29T10:23:39;7.13;;;3.03;;
49978;SDS011;35869;50.990;6.962;2023-05-29T10:28:44;12.15;;;4.05;;
49978;SDS011;35869;50.990;6.962;2023-05-29T10:39:01;7.88;;;3.47;;
49978;SDS011;35869;50.990;6.962;2023-05-29T10:44:02;11.80;;;3.85;;
49978;SDS011;35869;50.990;6.962;2023-05-29T10:49:03;6.35;;;3.20;;
49978;SDS011;35869;50.990;6.962;2023-05-29T10:54:05;9.82;;;3.88;;
49978;SDS011;35869;50.990;6.962;2023-05-29T10:59:06;9.80;;;3.78;;
49978;SDS011;35869;50.990;6.962;2023-05-29T11:09:30;7.75;;;3.33;;
49978;SDS011;35869;50.990;6.962;2023-05-29T11:14:43;9.00;;;4.33;;
49978;SDS011;35869;50.990;6.962;2023-05-29T11:19:47;9.18;;;3.25;;
49978;SDS011;35869;50.990;6.962;2023-05-29T11:24:48;7.03;;;3.17;;
49978;SDS011;35869;50.990;6.962;2023-05-29T11:29:50;7.85;;;3.13;;
49978;SDS011;35869;50.990;6.962;2023-05-29T11:34:50;15.20;;;3.83;;
49978;SDS011;35869;50.990;6.962;2023-05-29T11:39:53;11.77;;;4.45;;
49978;SDS011;35869;50.990;6.962;2023-05-29T11:44:54;7.18;;;3.30;;
49978;SDS011;35869;50.990;6.962;2023-05-29T11:49:54;10.05;;;3.58;;
49978;SDS011;35869;50.990;6.962;2023-05-29T11:54:54;11.05;;;4.43;;
49978;SDS011;35869;50.990;6.962;2023-05-29T11:59:54;7.05;;;3.45;;
49978;SDS011;35869;50.990;6.962;2023-05-29T12:05:04;10.07;;;3.92;;
49978;SDS011;35869;50.990;6.962;2023-05-29T12:10:09;6.13;;;3.30;;
49978;SDS011;35869;50.990;6.962;2023-05-29T12:15:12;8.88;;;3.17;;
49978;SDS011;35869;50.990;6.962;2023-05-29T12:20:13;4.95;;;2.47;;
49978;SDS011;35869;50.990;6.962;2023-05-29T12:25:20;6.70;;;3.50;;
49978;SDS011;35869;50.990;6.962;2023-05-29T12:30:21;6.13;;;2.90;;
49978;SDS011;35869;50.990;6.962;2023-05-29T12:35:22;7.22;;;3.08;;
49978;SDS011;35869;50.990;6.962;2023-05-29T12:40:25;11.05;;;3.40;;
49978;SDS011;35869;50.990;6.962;2023-05-29T12:45:28;8.60;;;3.22;;
49978;SDS011;35869;50.990;6.962;2023-05-29T12:50:38;6.93;;;2.75;;
49978;SDS011;35869;50.990;6.962;2023-05-29T12:55:40;5.50;;;3.15;;
49978;SDS011;35869;50.990;6.962;2023-05-29T13:00:42;9.05;;;3.17;;
49978;SDS011;35869;50.990;6.962;2023-05-29T13:05:44;5.22;;;2.80;;
49978;SDS011;35869;50.990;6.962;2023-05-29T13:10:44;5.22;;;2.53;;
49978;SDS011;35869;50.990;6.962;2023-05-29T13:15:44;9.02;;;3.15;;
49978;SDS011;35869;50.990;6.962;2023-05-29T13:20:45;6.88;;;3.10;;
49978;SDS011;35869;50.990;6.962;2023-05-29T13:25:45;6.78;;;2.78;;
49978;SDS011;35869;50.990;6.962;2023-05-29T13:30:45;9.57;;;3.90;;
49978;SDS011;35869;50.990;6.962;2023-05-29T13:35:45;5.13;;;2.50;;
49978;SDS011;35869;50.990;6.962;2023-05-29T13:40:46;8.00;;;3.03;;
49978;SDS011;35869;50.990;6.962;2023-05-29T13:45:46;6.10;;;3.22;;
49978;SDS011;35869;50.990;6.962;2023-05-29T13:50:46;4.90;;;2.67;;
49978;SDS011;35869;50.990;6.962;2023-05-29T13:55:46;7.55;;;2.85;;
49978;SDS011;35869;50.990;6.962;2023-05-29T14:00:47;6.93;;;2.67;;
49978;SDS011;35869;50.990;6.962;2023-05-29T14:05:47;7.72;;;3.22;;
49978;SDS011;35869;50.990;6.962;2023-05-29T14:10:47;7.47;;;2.90;;
49978;SDS011;35869;50.990;6.962;2023-05-29T14:15:47;7.33;;;3.17;;
49978;SDS011;35869;50.990;6.962;2023-05-29T14:20:48;8.48;;;3.13;;
49978;SDS011;35869;50.990;6.962;2023-05-29T14:25:48;4.43;;;2.80;;
49978;SDS011;35869;50.990;6.962;2023-05-29T14:30:48;7.32;;;3.42;;
49978;SDS011;35869;50.990;6.962;2023-05-29T14:35:49;10.73;;;3.20;;
49978;SDS011;35869;50.990;6.962;2023-05-29T14:40:49;6.13;;;3.07;;
49978;SDS011;35869;50.990;6.962;2023-05-29T14:45:49;8.05;;;3.00;;
49978;SDS011;35869;50.990;6.962;2023-05-29T14:50:49;4.50;;;2.87;;
49978;SDS011;35869;50.990;6.962;2023-05-29T14:55:50;6.93;;;3.00;;
49978;SDS011;35869;50.990;6.962;2023-05-29T15:00:50;7.35;;;3.13;;
49978;SDS011;35869;50.990;6.962;2023-05-29T15:05:50;5.43;;;2.70;;
49978;SDS011;35869;50.990;6.962;2023-05-29T15:10:50;4.85;;;2.78;;
49978;SDS011;35869;50.990;6.962;2023-05-29T15:15:51;5.78;;;2.72;;
49978;SDS011;35869;50.990;6.962;2023-05-29T15:20:51;5.85;;;2.50;;
49978;SDS011;35869;50.990;6.962;2023-05-29T15:25:52;5.03;;;2.42;;
49978;SDS011;35869;50.990;6.962;2023-05-29T15:30:52;8.05;;;3.25;;
49978;SDS011;35869;50.990;6.962;2023-05-29T15:35:53;9.45;;;2.97;;
49978;SDS011;35869;50.990;6.962;2023-05-29T15:40:53;9.85;;;3.25;;
49978;SDS011;35869;50.990;6.962;2023-05-29T15:45:53;4.50;;;2.35;;
49978;SDS011;35869;50.990;6.962;2023-05-29T15:50:53;7.88;;;2.97;;
49978;SDS011;35869;50.990;6.962;2023-05-29T15:55:53;5.28;;;2.45;;
49978;SDS011;35869;50.990;6.962;2023-05-29T16:00:54;6.88;;;2.90;;
49978;SDS011;35869;50.990;6.962;2023-05-29T16:05:54;5.60;;;2.97;;
49978;SDS011;35869;50.990;6.962;2023-05-29T16:10:54;5.68;;;2.78;;
49978;SDS011;35869;50.990;6.962;2023-05-29T16:15:55;7.57;;;2.88;;
49978;SDS011;35869;50.990;6.962;2023-05-29T16:20:55;6.95;;;3.10;;
49978;SDS011;35869;50.990;6.962;2023-05-29T16:25:55;5.40;;;2.60;;
49978;SDS011;35869;50.990;6.962;2023-05-29T16:30:55;7.45;;;2.70;;
49978;SDS011;35869;50.990;6.962;2023-05-29T16:35:55;6.60;;;3.40;;
49978;SDS011;35869;50.990;6.962;2023-05-29T16:40:56;7.47;;;2.67;;
49978;SDS011;35869;50.990;6.962;2023-05-29T16:45:56;6.90;;;3.00;;
49978;SDS011;35869;50.990;6.962;2023-05-29T16:50:56;6.70;;;2.40;;
49978;SDS011;35869;50.990;6.962;2023-05-29T16:55:56;5.80;;;2.25;;
49978;SDS011;35869;50.990;6.962;2023-05-29T17:00:57;6.03;;;2.70;;
49978;SDS011;35869;50.990;6.962;2023-05-29T17:05:57;8.45;;;2.70;;
49978;SDS011;35869;50.990;6.962;2023-05-29T17:10:57;8.00;;;2.83;;
49978;SDS011;35869;50.990;6.962;2023-05-29T17:15:57;7.07;;;2.63;;
49978;SDS011;35869;50.990;6.962;2023-05-29T17:20:58;4.60;;;2.50;;
49978;SDS011;35869;50.990;6.962;2023-05-29T17:25:58;6.05;;;3.10;;
49978;SDS011;35869;50.990;6.962;2023-05-29T17:30:58;4.88;;;2.30;;
49978;SDS011;35869;50.990;6.962;2023-05-29T17:35:58;7.45;;;2.97;;
49978;SDS011;35869;50.990;6.962;2023-05-29T17:40:59;4.90;;;2.90;;
49978;SDS011;35869;50.990;6.962;2023-05-29T17:45:59;5.50;;;2.67;;
49978;SDS011;35869;50.990;6.962;2023-05-29T17:50:59;6.93;;;2.58;;
49978;SDS011;35869;50.990;6.962;2023-05-29T17:55:59;4.53;;;2.55;;
49978;SDS011;35869;50.990;6.962;2023-05-29T18:01:00;9.93;;;2.83;;
49978;SDS011;35869;50.990;6.962;2023-05-29T18:06:00;6.15;;;2.92;;
49978;SDS011;35869;50.990;6.962;2023-05-29T18:11:00;8.88;;;2.67;;
49978;SDS011;35869;50.990;6.962;2023-05-29T18:16:00;5.43;;;2.45;;
49978;SDS011;35869;50.990;6.962;2023-05-29T18:21:00;7.25;;;3.05;;
49978;SDS011;35869;50.990;6.962;2023-05-29T18:26:01;6.95;;;2.85;;
49978;SDS011;35869;50.990;6.962;2023-05-29T18:31:01;14.57;;;7.20;;
49978;SDS011;35869;50.990;6.962;2023-05-29T18:36:01;4.45;;;2.67;;
49978;SDS011;35869;50.990;6.962;2023-05-29T18:41:01;4.97;;;2.55;;
49978;SDS011;35869;50.990;6.962;2023-05-29T18:46:02;9.50;;;2.63;;
49978;SDS011;35869;50.990;6.962;2023-05-29T18:51:02;9.38;;;3.40;;
49978;SDS011;35869;50.990;6.962;2023-05-29T18:56:03;3.80;;;2.53;;
49978;SDS011;35869;50.990;6.962;2023-05-29T19:01:03;3.43;;;2.17;;
49978;SDS011;35869;50.990;6.962;2023-05-29T19:06:03;5.72;;;2.33;;
49978;SDS011;35869;50.990;6.962;2023-05-29T19:11:03;4.05;;;2.33;;
49978;SDS011;35869;50.990;6.962;2023-05-29T19:16:04;11.23;;;3.75;;
49978;SDS011;35869;50.990;6.962;2023-05-29T19:21:04;6.10;;;2.40;;
49978;SDS011;35869;50.990;6.962;2023-05-29T19:26:05;5.00;;;2.77;;
49978;SDS011;35869;50.990;6.962;2023-05-29T19:31:05;5.70;;;2.83;;
49978;SDS011;35869;50.990;6.962;2023-05-29T19:36:05;8.48;;;3.03;;
49978;SDS011;35869;50.990;6.962;2023-05-29T19:41:06;7.23;;;2.67;;
49978;SDS011;35869;50.990;6.962;2023-05-29T19:46:06;6.53;;;3.05;;
49978;SDS011;35869;50.990;6.962;2023-05-29T19:51:06;8.30;;;3.42;;
49978;SDS011;35869;50.990;6.962;2023-05-29T19:56:06;5.20;;;2.72;;
49978;SDS011;35869;50.990;6.962;2023-05-29T20:01:07;7.97;;;2.73;;
49978;SDS011;35869;50.990;6.962;2023-05-29T20:06:07;6.30;;;3.00;;
49978;SDS011;35869;50.990;6.962;2023-05-29T20:11:07;4.50;;;2.92;;
49978;SDS011;35869;50.990;6.962;2023-05-29T20:16:08;6.80;;;3.10;;
49978;SDS011;35869;50.990;6.962;2023-05-29T20:21:08;7.77;;;2.73;;
49978;SDS011;35869;50.990;6.962;2023-05-29T20:26:08;6.93;;;2.30;;
49978;SDS011;35869;50.990;6.962;2023-05-29T20:31:08;5.97;;;2.60;;
49978;SDS011;35869;50.990;6.962;2023-05-29T20:36:09;7.67;;;2.67;;
49978;SDS011;35869;50.990;6.962;2023-05-29T20:41:09;7.28;;;3.28;;
49978;SDS011;35869;50.990;6.962;2023-05-29T20:46:09;11.70;;;3.10;;
49978;SDS011;35869;50.990;6.962;2023-05-29T20:51:10;5.80;;;2.67;;
49978;SDS011;35869;50.990;6.962;2023-05-29T20:56:10;8.07;;;2.90;;
49978;SDS011;35869;50.990;6.962;2023-05-29T21:01:10;7.40;;;2.60;;
49978;SDS011;35869;50.990;6.962;2023-05-29T21:06:10;4.83;;;2.60;;
49978;SDS011;35869;50.990;6.962;2023-05-29T21:11:10;4.20;;;2.47;;
49978;SDS011;35869;50.990;6.962;2023-05-29T21:16:11;5.85;;;2.75;;
49978;SDS011;35869;50.990;6.962;2023-05-29T21:21:11;11.70;;;3.17;;
49978;SDS011;35869;50.990;6.962;2023-05-29T21:26:11;7.10;;;2.30;;
49978;SDS011;35869;50.990;6.962;2023-05-29T21:31:12;6.70;;;2.40;;
49978;SDS011;35869;50.990;6.962;2023-05-29T21:36:12;10.37;;;2.90;;
49978;SDS011;35869;50.990;6.962;2023-05-29T21:41:12;8.47;;;2.77;;
49978;SDS011;35869;50.990;6.962;2023-05-29T21:46:12;5.95;;;2.20;;
49978;SDS011;35869;50.990;6.962;2023-05-29T21:51:12;6.03;;;2.30;;
49978;SDS011;35869;50.990;6.962;2023-05-29T22:01:14;6.32;;;2.38;;
49978;SDS011;35869;50.990;6.962;2023-05-29T22:06:15;6.40;;;2.13;;
49978;SDS011;35869;50.990;6.962;2023-05-29T22:11:16;9.73;;;2.97;;
49978;SDS011;35869;50.990;6.962;2023-05-29T22:16:16;5.25;;;1.92;;
49978;SDS011;35869;50.990;6.962;2023-05-29T22:21:16;7.32;;;2.22;;
49978;SDS011;35869;50.990;6.962;2023-05-29T22:26:17;7.28;;;2.10;;
49978;SDS011;35869;50.990;6.962;2023-05-29T22:31:17;6.75;;;2.47;;
49978;SDS011;35869;50.990;6.962;2023-05-29T22:41:17;9.15;;;3.03;;
49978;SDS011;35869;50.990;6.962;2023-05-29T22:46:17;6.60;;;2.50;;
49978;SDS011;35869;50.990;6.962;2023-05-29T22:51:18;10.73;;;2.60;;
49978;SDS011;35869;50.990;6.962;2023-05-29T23:01:18;5.32;;;2.13;;
49978;SDS011;35869;50.990;6.962;2023-05-29T23:11:19;5.70;;;2.03;;
49978;SDS011;35869;50.990;6.962;2023-05-29T23:16:19;5.55;;;2.25;;
49978;SDS011;35869;50.990;6.962;2023-05-29T23:21:20;6.10;;;2.17;;
49978;SDS011;35869;50.990;6.962;2023-05-29T23:26:20;5.60;;;2.30;;
49978;SDS011;35869;50.990;6.962;2023-05-29T23:31:21;5.78;;;1.77;;
49978;SDS011;35869;50.990;6.962;2023-05-29T23:41:21;4.38;;;1.85;;
49978;SDS011;35869;50.990;6.962;2023-05-29T23:46:21;4.53;;;1.60;;
49978;SDS011;35869;50.990;6.962;2023-05-29T23:51:21;7.90;;;2.10;;
49978;SDS011;35869;50.990;6.962;2023-05-29T23:56:22;6.53;;;2.03;;
